Latest Weather Observations for Albany Airport

IDW60801

Issued at 2:05 am WST Sunday 31 August 2014 (issued every 30 minutes, with the page automatically refreshed every 10 minutes)

About weather observations | Map of weather stations | Latest weather observations for WA | Other Formats
Station Details ID: 009999 Name: ALBANY AIRPORT Lat: -34.94 Lon: 117.82 Height: 68.4 m
Data from the previous 72 hours. | See also: Recent months at Albany Airport
Date/Time
WST
Temp
°C
App
Temp
°C
Dew
Point
Rel
Hum
%
Delta-T
°C
Wind Press
QNH
hPa
Press
MSL
hPa
Rain
since 9 am
mm
Dir
 
Spd
km/h
Gust
km/h
Spd
kts
Gust
kts
31/02:00am 7.6 4.7 6.5 93 0.5 WNW 11 11 6 6 1016.5 - 0.2
31/01:30am 7.9 5.0 6.6 91 0.6 NW 11 13 6 7 1016.6 - 0.2
31/01:00am 7.4 4.5 6.5 94 0.4 NW 11 13 6 7 1016.6 - 0.2
31/12:30am 7.7 4.4 6.4 91 0.6 NW 13 15 7 8 1016.5 - 0.2
31/12:00am 7.3 4.0 6.2 93 0.5 NW 13 17 7 9 1016.8 1017.0 0.2
 
Date/Time
WST
Temp
°C
App
Temp
°C
Dew
Point
Rel
Hum
%
Delta-T
°C
Wind Press
QNH
hPa
Press
MSL
hPa
Rain
since 9 am
mm
Dir
 
Spd
km/h
Gust
km/h
Spd
kts
Gust
kts
30/11:30pm 7.2 3.9 6.3 94 0.4 NW 13 15 7 8 1016.6 - 0.2
30/11:00pm 7.4 4.5 6.5 94 0.4 NW 11 13 6 7 1016.8 - 0.2
30/10:30pm 7.4 4.1 6.3 93 0.5 NW 13 13 7 7 1017.1 - 0.2
30/10:00pm 8.5 5.7 6.8 89 0.8 WNW 11 13 6 7 1017.4 - 0.2
30/09:30pm 9.1 6.3 7.0 87 1.0 WNW 11 13 6 7 1017.1 - 0.2
30/09:00pm 8.9 6.2 7.4 90 0.7 WNW 11 11 6 6 1017.2 1017.4 0.2
30/08:30pm 9.2 7.0 7.7 90 0.7 NW 9 9 5 5 1017.1 - 0.2
30/08:00pm 9.7 7.1 7.8 88 0.9 NW 11 11 6 6 1016.9 - 0.2
30/07:30pm 10.4 8.3 8.4 87 1.0 WNW 9 11 5 6 1017.0 - 0.2
30/07:00pm 11.2 9.1 8.4 83 1.4 WNW 9 9 5 5 1016.7 - 0.2
30/06:30pm 11.1 9.0 8.2 82 1.4 NW 9 9 5 5 1016.6 - 0.2
30/06:00pm 11.4 9.4 8.6 83 1.4 WNW 9 9 5 5 1016.3 1016.5 0.2
30/05:30pm 12.3 10.0 7.4 72 2.4 WSW 9 13 5 7 1016.3 - 0.2
30/05:00pm 12.7 8.7 6.6 66 2.9 WSW 17 28 9 15 1016.1 - 0.2
30/04:30pm 13.4 10.4 7.5 67 2.9 SW 13 20 7 11 1015.6 - 0.2
30/04:00pm 13.3 10.0 8.1 71 2.6 SW 15 22 8 12 1015.4 - 0.2
30/03:30pm 14.0 9.5 7.0 62 3.4 SW 20 30 11 16 1015.1 - 0.2
30/03:00pm 13.6 11.4 8.0 69 2.8 W 9 11 5 6 1014.8 1015.0 0.2
30/02:30pm 14.7 10.3 6.4 57 4.0 W 19 26 10 14 1014.6 - 0.2
30/02:00pm 13.8 9.9 7.3 65 3.2 W 17 24 9 13 1014.6 - 0.2
30/01:30pm 14.0 9.0 8.2 68 2.9 WSW 24 33 13 18 1014.5 - 0.2
30/01:00pm 15.2 10.6 6.6 56 4.2 WSW 20 30 11 16 1014.4 - 0.2
30/12:30pm 15.1 10.8 7.0 58 4.0 W 19 28 10 15 1014.5 - 0.2
30/12:00pm 14.8 9.3 5.8 55 4.3 W 24 33 13 18 1014.6 1014.8 0.2
30/11:30am 15.7 11.5 8.2 61 3.8 WSW 20 33 11 18 1014.8 - 0.2
30/11:00am 14.6 10.2 8.9 68 2.9 W 22 30 12 16 1015.0 - 0.2
30/10:30am 13.9 11.0 11.1 83 1.5 W 17 20 9 11 1015.1 - 0.2
30/10:00am 12.9 10.5 11.4 91 0.8 W 15 20 8 11 1014.9 - 0.2
30/09:30am 12.6 9.6 11.9 95 0.4 W 19 32 10 17 1014.7 - 0.2
30/09:17am 12.3 9.6 11.7 96 0.3 W 17 26 9 14 1014.7 - 0.0
30/09:00am 12.6 10.4 12.0 96 0.3 W 15 20 8 11 1014.6 1014.8 11.8
30/08:30am 11.9 10.0 11.7 99 0.1 W 13 17 7 9 1014.4 - 11.8
30/08:11am 11.5 9.5 11.5 100 0.0 WNW 13 19 7 10 1014.2 - 11.8
30/08:00am 11.2 9.5 11.2 100 0.0 WNW 11 19 6 10 1014.0 - 11.8
30/07:30am 10.8 8.6 10.8 100 0.0 WNW 13 17 7 9 1013.6 - 11.4
30/07:24am 10.8 8.6 10.8 100 0.0 WNW 13 15 7 8 1013.5 - 11.4
30/07:00am 10.7 8.5 10.7 100 0.0 W 13 17 7 9 1013.2 - 11.4
30/06:30am 10.4 8.9 10.4 100 0.0 NW 9 13 5 7 1012.7 - 11.2
30/05:30am 10.6 9.1 10.6 100 0.0 NW 9 15 5 8 1011.9 - 11.2
30/05:00am 10.7 8.9 10.7 100 0.0 NNW 11 15 6 8 1011.8 - 11.2
30/04:30am 10.8 9.0 10.8 100 0.0 NNW 11 15 6 8 1011.6 - 11.2
30/04:00am 9.7 8.3 9.5 99 0.1 NNW 7 7 4 4 1011.4 - 11.2
30/03:30am 9.7 8.3 9.7 100 0.0 NW 7 11 4 6 1011.4 - 11.2
30/03:26am 9.8 8.5 9.8 100 0.0 NW 7 9 4 5 1011.3 - 11.2
30/03:00am 9.3 7.8 9.1 99 0.1 NNW 7 9 4 5 1011.3 1011.5 11.2
30/02:30am 10.0 10.1 10.0 100 0.0 CALM 0 0 0 0 1011.1 - 11.2
30/02:21am 11.0 11.3 11.0 100 0.0 CALM 0 0 0 0 1011.3 - 11.2
30/02:19am 11.4 11.8 11.2 99 0.1 CALM 0 0 0 0 1011.2 - 11.2
30/02:00am 11.8 11.0 11.6 99 0.1 W 7 11 4 6 1011.3 - 11.2
30/01:30am 11.8 11.0 11.6 99 0.1 SW 7 9 4 5 1011.7 - 11.2
30/01:25am 11.7 10.8 11.5 99 0.1 SW 7 9 4 5 1011.6 - 11.2
30/01:00am 11.9 10.0 11.7 99 0.1 SSW 13 17 7 9 1011.6 - 11.2
30/12:56am 11.9 10.0 11.7 99 0.1 SW 13 17 7 9 1011.6 - 11.2
30/12:34am 11.9 10.3 11.5 97 0.2 SSW 11 17 6 9 1011.2 - 11.2
30/12:30am 11.9 10.3 11.7 99 0.1 SW 11 17 6 9 1011.3 - 11.0
30/12:00am 11.6 12.0 11.2 97 0.2 CALM 0 0 0 0 1011.0 1011.2 11.0
 
Date/Time
WST
Temp
°C
App
Temp
°C
Dew
Point
Rel
Hum
%
Delta-T
°C
Wind Press
QNH
hPa
Press
MSL
hPa
Rain
since 9 am
mm
Dir
 
Spd
km/h
Gust
km/h
Spd
kts
Gust
kts
29/11:30pm 11.4 10.6 11.2 99 0.1 NNE 6 9 3 5 1010.8 - 11.0
29/11:00pm 11.8 10.5 11.4 97 0.2 N 9 11 5 6 1011.6 - 11.0
29/10:30pm 12.2 11.4 11.8 97 0.2 N 7 11 4 6 1011.2 - 11.0
29/10:00pm 12.3 11.1 11.5 95 0.4 NNW 9 11 5 6 1012.1 - 11.0
29/09:31pm 12.3 10.7 11.7 96 0.3 N 11 11 6 6 1011.8 - 10.8
29/09:30pm 12.3 11.1 11.7 96 0.3 N 9 11 5 6 1011.9 - 10.8
29/09:03pm 12.5 10.9 11.6 94 0.5 N 11 13 6 7 1012.0 - 10.8
29/09:02pm 12.5 10.9 11.6 94 0.5 N 11 13 6 7 1012.0 - 10.8
29/09:00pm 12.5 10.9 11.6 94 0.5 N 11 13 6 7 1012.1 1012.2 10.8
29/08:40pm 12.6 11.8 11.7 94 0.5 N 7 9 4 5 1012.1 - 10.6
29/08:30pm 12.7 11.6 12.0 95 0.4 N 9 11 5 6 1012.2 - 10.6
29/08:00pm 12.7 12.2 12.1 96 0.3 N 6 7 3 4 1011.9 - 10.6
29/07:30pm 13.0 11.9 12.1 94 0.5 N 9 11 5 6 1012.1 - 10.6
29/07:00pm 12.9 11.9 12.2 95 0.4 N 9 11 5 6 1011.8 - 10.6
29/06:30pm 12.9 12.3 12.2 95 0.4 N 7 9 4 5 1011.8 - 10.6
29/06:00pm 13.1 12.5 11.8 92 0.7 NNW 6 7 3 4 1011.4 1011.6 10.6
29/05:30pm 13.5 12.9 11.8 89 0.9 WNW 6 7 3 4 1011.3 - 10.6
29/05:00pm 13.9 13.2 12.1 89 1.0 W 7 9 4 5 1011.2 - 10.6
29/04:30pm 13.9 13.4 12.1 89 1.0 WNW 6 7 3 4 1010.7 - 10.6
29/04:00pm 14.2 12.3 11.8 85 1.3 WNW 13 15 7 8 1011.0 - 10.4
29/03:30pm 14.7 13.7 12.3 85 1.3 WNW 9 11 5 6 1010.7 - 10.2
29/03:00pm 14.7 13.3 12.3 85 1.3 W 11 15 6 8 1010.6 1010.8 10.2
29/02:30pm 14.6 13.0 12.8 89 1.0 WNW 13 17 7 9 1010.5 - 10.2
29/02:00pm 14.6 12.9 12.6 88 1.1 W 13 20 7 11 1010.2 - 10.2
29/01:53pm 14.1 11.8 11.7 85 1.3 WSW 15 24 8 13 1010.1 - 10.2
29/01:30pm 14.3 12.9 13.4 94 0.5 SW 13 17 7 9 1009.6 - 10.0
29/01:18pm 14.2 12.8 13.5 96 0.4 WSW 13 19 7 10 1009.7 - 10.0
29/01:00pm 14.1 11.9 13.2 94 0.5 WSW 17 22 9 12 1010.1 - 9.6
29/12:43pm 14.4 13.0 13.5 94 0.5 SW 13 20 7 11 1010.0 - 9.6
29/12:30pm 14.2 12.0 13.3 94 0.5 SW 17 24 9 13 1010.0 - 9.6
29/12:00pm 14.3 13.0 13.8 97 0.3 SSW 13 20 7 11 1009.7 1009.9 9.6
29/11:52am 14.4 14.0 14.0 97 0.2 SSW 9 13 5 7 1009.5 - 9.4
29/11:45am 14.2 13.7 13.8 97 0.2 SSW 9 13 5 7 1009.9 - 9.0
29/11:30am 14.1 14.9 13.7 97 0.2 SW 2 7 1 4 1009.8 - 9.0
29/11:00am 14.0 13.1 13.6 97 0.2 WNW 11 17 6 9 1010.4 - 8.4
29/10:47am 14.2 13.3 13.8 97 0.2 W 11 13 6 7 1010.2 - 7.8
29/10:30am 14.0 12.3 13.6 97 0.2 W 15 19 8 10 1010.2 - 6.6
29/10:24am 14.0 12.7 13.6 97 0.2 W 13 19 7 10 1010.2 - 5.0
29/10:12am 14.1 13.9 13.7 97 0.2 W 7 9 4 5 1010.1 - 3.0
29/10:00am 14.1 14.2 13.9 99 0.1 WNW 6 7 3 4 1010.0 - 2.4
29/09:30am 14.2 13.7 13.7 97 0.3 NW 9 11 5 6 1010.1 - 0.8
29/09:00am 14.2 13.3 13.8 97 0.2 SW 11 15 6 8 1009.9 1010.1 18.0
29/08:53am 14.1 13.2 13.7 97 0.2 WSW 11 15 6 8 1009.9 - 17.8
29/08:30am 14.5 12.6 14.1 97 0.2 WSW 17 24 9 13 1010.0 - 16.8
29/08:14am 14.5 13.8 14.3 99 0.1 WSW 11 15 6 8 1009.6 - 16.0
29/08:00am 14.6 13.9 14.4 99 0.1 WNW 11 15 6 8 1009.3 - 15.8
29/07:52am 14.5 13.0 14.3 99 0.1 WNW 15 20 8 11 1009.2 - 15.6
29/07:38am 14.5 12.0 14.1 97 0.2 W 20 30 11 16 1009.1 - 14.8
29/07:30am 14.5 11.6 14.1 97 0.2 W 22 30 12 16 1009.0 - 13.2
29/07:20am 14.6 12.1 14.1 97 0.3 W 20 32 11 17 1009.0 - 9.2
29/07:13am 14.9 12.5 13.8 93 0.6 W 19 26 10 14 1008.7 - 7.4
29/07:00am 14.9 13.1 14.4 97 0.3 WSW 17 24 9 13 1008.6 - 7.2
29/06:55am 15.1 13.7 14.4 96 0.4 WNW 15 20 8 11 1008.7 - 6.4
29/06:30am 15.2 13.7 14.3 94 0.5 NNW 15 24 8 13 1008.4 - 5.8
29/06:00am 15.1 13.2 14.2 94 0.5 NNW 17 24 9 13 1008.2 1008.4 5.6
29/05:30am 15.2 12.7 14.0 92 0.7 NNW 20 28 11 15 1008.1 - 5.4
29/05:16am 15.0 13.1 14.1 94 0.5 NNW 17 24 9 13 1008.4 - 4.8
29/05:00am 15.0 12.1 14.1 94 0.5 NNW 22 32 12 17 1008.5 - 4.4
29/04:48am 15.2 12.9 14.0 92 0.7 NNW 19 24 10 13 1008.7 - 3.4
29/04:30am 15.4 13.2 13.4 88 1.1 NNW 17 20 9 11 1008.5 - 2.8
29/04:00am 15.7 13.5 13.2 85 1.4 NW 17 22 9 12 1008.2 - 2.8
29/03:30am 15.9 13.0 13.0 83 1.6 NW 20 28 11 15 1008.7 - 2.8
29/03:00am 16.0 13.1 12.8 81 1.8 NW 20 28 11 15 1008.7 1008.9 2.8
29/02:30am 15.6 13.3 13.1 85 1.4 NNW 17 24 9 13 1008.2 - 2.8
29/02:00am 14.8 13.3 13.0 89 1.0 NNW 13 19 7 10 1008.2 - 2.8
29/01:30am 15.0 12.2 12.5 85 1.4 NNW 19 26 10 14 1008.5 - 2.8
29/01:00am 14.7 11.6 12.3 85 1.3 N 20 30 11 16 1009.0 - 2.8
29/12:30am 15.3 11.4 12.0 81 1.8 NNW 24 32 13 17 1009.4 - 2.8
29/12:00am 15.1 11.3 12.4 84 1.5 NNW 24 32 13 17 1009.4 1009.6 2.8
 
Date/Time
WST
Temp
°C
App
Temp
°C
Dew
Point
Rel
Hum
%
Delta-T
°C
Wind Press
QNH
hPa
Press
MSL
hPa
Rain
since 9 am
mm
Dir
 
Spd
km/h
Gust
km/h
Spd
kts
Gust
kts
28/11:30pm 15.4 11.9 13.4 88 1.1 N 24 30 13 16 1009.4 - 2.8
28/11:19pm 15.3 12.0 13.9 91 0.8 N 24 37 13 20 1009.5 - 2.8
28/11:00pm 15.3 12.7 13.9 91 0.8 NW 20 26 11 14 1010.6 - 2.4
28/10:44pm 15.8 12.0 13.7 87 1.2 W 26 41 14 22 1010.6 - 1.0
28/10:30pm 17.4 13.7 11.5 68 3.2 N 22 32 12 17 1010.2 - 0.0
28/10:00pm 17.4 12.9 11.3 67 3.3 N 26 39 14 21 1010.2 - 0.0
28/09:30pm 17.5 13.4 11.3 67 3.4 N 24 33 13 18 1010.6 - 0.0
28/09:00pm 17.7 13.1 11.1 65 3.6 N 26 37 14 20 1010.6 1010.8 0.0
28/08:50pm 18.1 13.1 10.9 63 3.9 N 28 46 15 25 1010.6 - 0.0
28/08:30pm 17.8 13.6 11.0 64 3.7 N 24 41 13 22 1010.7 - 0.0
28/08:00pm 17.4 13.2 11.1 66 3.4 N 24 33 13 18 1010.7 - 0.0
28/07:30pm 17.7 13.6 11.3 66 3.5 N 24 32 13 17 1010.7 - 0.0
28/07:00pm 16.8 14.2 12.1 74 2.6 N 17 30 9 16 1010.8 - 0.0
28/06:30pm 16.0 13.8 12.2 78 2.1 NNW 15 20 8 11 1010.7 - 0.0
28/06:00pm 16.9 13.8 11.6 71 2.9 N 19 24 10 13 1010.6 1010.8 0.0
28/05:30pm 17.6 14.2 12.4 71 2.9 NNW 22 33 12 18 1010.6 - 0.0
28/05:00pm 18.5 14.2 12.0 66 3.6 NW 26 41 14 22 1010.6 - 0.0
28/04:30pm 19.7 15.4 10.7 56 4.9 NNW 24 33 13 18 1010.6 - 0.0
28/04:00pm 19.3 15.6 11.5 60 4.3 N 22 33 12 18 1010.3 - 0.0
28/03:30pm 19.6 16.7 12.3 62 4.1 N 19 24 10 13 1010.3 - 0.0
28/03:00pm 19.0 15.3 11.4 61 4.2 N 22 32 12 17 1010.2 1010.4 0.0
28/02:30pm 19.1 14.4 10.8 58 4.5 NNW 26 35 14 19 1010.5 - 0.0
28/02:00pm 19.2 14.1 10.5 57 4.7 NNW 28 41 15 22 1010.6 - 0.0
28/01:30pm 19.5 14.6 11.3 59 4.5 NNW 28 41 15 22 1010.7 - 0.0
28/01:04pm 19.2 14.2 11.0 59 4.5 NNW 28 46 15 25 1010.8 - 0.0
28/01:00pm 19.3 14.3 11.1 59 4.5 NNW 28 39 15 21 1010.8 - 0.0
28/12:36pm 18.7 13.1 10.3 58 4.5 NNW 30 50 16 27 1011.3 - 0.0
28/12:30pm 18.6 13.0 10.2 58 4.5 NNW 30 41 16 22 1011.6 - 0.0
28/12:00pm 17.7 12.8 10.0 60 4.1 NNW 26 35 14 19 1011.9 1012.0 0.0
28/11:30am 17.2 12.6 9.6 61 4.0 NNW 24 32 13 17 1012.6 - 0.0
28/11:00am 16.3 11.5 8.7 60 3.9 N 24 32 13 17 1012.7 - 0.0
28/10:30am 15.7 11.1 8.2 61 3.8 N 22 30 12 16 1013.2 - 0.0
28/10:00am 15.4 11.3 8.5 63 3.5 N 20 30 11 16 1013.4 - 0.0
28/09:30am 15.3 9.8 7.7 60 3.8 N 26 35 14 19 1013.6 - 0.0
28/09:00am 15.0 11.1 8.5 65 3.3 N 19 26 10 14 1014.1 1014.2 0.2
28/08:30am 14.4 10.6 9.1 70 2.7 N 19 26 10 14 1014.1 - 0.2
28/08:00am 14.0 10.0 8.9 71 2.6 N 20 24 11 13 1014.1 - 0.2
28/07:30am 13.7 10.3 9.0 73 2.4 N 17 20 9 11 1013.9 - 0.2
28/07:00am 12.7 10.1 9.4 80 1.7 N 13 15 7 8 1013.9 - 0.2
28/06:30am 13.5 10.5 9.2 75 2.2 N 15 22 8 12 1013.9 - 0.2
28/06:00am 13.3 9.6 9.4 77 2.0 N 19 24 10 13 1013.7 1013.8 0.2
28/05:30am 13.1 10.6 9.6 79 1.8 NNW 13 20 7 11 1014.2 - 0.2
28/05:00am 12.7 10.6 9.6 81 1.6 N 11 15 6 8 1013.9 - 0.2
28/04:30am 13.3 10.0 9.4 77 2.0 N 17 24 9 13 1013.7 - 0.2
28/04:00am 12.3 9.7 9.5 83 1.4 N 13 19 7 10 1014.0 - 0.2
28/03:30am 12.5 9.2 9.6 82 1.5 NNW 17 22 9 12 1014.2 - 0.2
28/03:00am 12.5 9.1 9.3 81 1.6 NNW 17 20 9 11 1014.4 1014.6 0.2
28/02:30am 12.2 9.2 9.2 82 1.5 N 15 19 8 10 1014.5 - 0.2

Other Formats:

Comma delimited format used in spreadsheet applications
http://www.bom.gov.au/fwo/IDW60801/IDW60801.94802.axf

JavaScript Object Notation format (JSON) in row-major order
http://www.bom.gov.au/fwo/IDW60801/IDW60801.94802.json